Palo Verde, Arizona
Current Conditions -  °F | °C
As of 3:35 AM on Friday 21 Nov 2014 (Local Time) from KBXK Reporting Station
Overcast Overcast  
Wind Chill: 46°   Ceiling: 12000
Heat Index: 46°   Visibility: 10mi
Dew Point: 25°   Wind: 3mph
Humidity: 43%   Direction: 230°SW
Pressure: 29.9"   Gusts: NA
Location:  33.35°N, 112.68°W
Report Text: KBXK 211035Z AUTO 23003KT 10SM OVC120 08/M04 A2990 RMK AO1
Loading
Personal Weather Stations






























Interactive Weather Map New forecast layout! Learn more

10-Day Weather Forecast

Advertisements
Track Severe Weather on mobile